createdAt,value
2022-11-28T00:01:37.162Z,37.13
2022-11-28T00:04:04.700Z,26.60
2022-11-28T00:06:31.554Z,27.70
2022-11-28T00:08:59.023Z,30.58
2022-11-28T00:11:25.751Z,28.92
2022-11-28T00:13:52.491Z,29.52
2022-11-28T00:16:20.617Z,31.02
2022-11-28T00:18:47.940Z,26.15
2022-11-28T00:21:14.819Z,26.13
2022-11-28T00:23:42.161Z,20.70
2022-11-28T00:26:14.552Z,32.33
2022-11-28T00:28:42.265Z,23.65
2022-11-28T00:31:13.500Z,27.65
2022-11-28T00:33:40.306Z,26.75
2022-11-28T00:36:07.223Z,25.83
2022-11-28T00:38:33.841Z,30.77
2022-11-28T00:41:01.548Z,25.98
2022-11-28T00:43:28.281Z,29.45
2022-11-28T00:45:55.010Z,25.20
2022-11-28T00:48:21.737Z,27.50
2022-11-28T00:50:48.402Z,23.48
2022-11-28T00:53:15.178Z,24.33
2022-11-28T00:55:41.875Z,23.33
2022-11-28T00:58:08.543Z,21.88
2022-11-28T01:00:35.244Z,23.65
2022-11-28T01:03:01.864Z,20.35
2022-11-28T01:05:28.477Z,22.90
2022-11-28T01:07:55.179Z,23.73
2022-11-28T01:10:21.857Z,20.92
2022-11-28T01:12:48.480Z,21.83
2022-11-28T01:15:18.134Z,20.92
2022-11-28T01:17:44.855Z,17.15
2022-11-28T01:20:12.122Z,23.90
2022-11-28T01:22:38.840Z,20.25
2022-11-28T01:25:05.739Z,21.42
2022-11-28T01:27:32.312Z,21.70
2022-11-28T01:29:58.957Z,14.65
2022-11-28T01:32:25.589Z,20.05
2022-11-28T01:34:52.400Z,15.43
2022-11-28T01:37:19.025Z,19.00
2022-11-28T01:39:46.663Z,13.88
2022-11-28T01:42:20.430Z,15.75
2022-11-28T01:44:50.097Z,20.15
2022-11-28T01:47:20.753Z,18.30
2022-11-28T01:49:47.387Z,18.48
2022-11-28T01:52:15.844Z,22.65
2022-11-28T01:54:44.184Z,17.17
2022-11-28T01:57:18.724Z,19.38
2022-11-28T01:59:55.947Z,23.23
2022-11-28T02:02:29.774Z,28.70
2022-11-28T02:04:56.495Z,22.00
2022-11-28T02:07:23.098Z,20.33
2022-11-28T02:09:49.718Z,20.42
2022-11-28T02:12:34.965Z,17.65
2022-11-28T02:15:26.517Z,27.08
2022-11-28T02:17:56.164Z,22.20
2022-11-28T02:20:53.425Z,23.17
2022-11-28T02:23:31.928Z,20.52
2022-11-28T02:25:58.888Z,24.35
2022-11-28T02:28:36.435Z,20.70
2022-11-28T02:31:30.964Z,23.50
2022-11-28T02:33:59.383Z,18.70
2022-11-28T02:36:32.456Z,19.30
2022-11-28T02:39:19.250Z,20.67
2022-11-28T02:41:54.043Z,17.50
2022-11-28T02:44:24.813Z,19.75
2022-11-28T02:47:15.948Z,17.48
2022-11-28T02:49:49.685Z,22.75
2022-11-28T02:52:24.285Z,22.35
2022-11-28T02:54:51.114Z,23.77
2022-11-28T02:57:17.766Z,22.63
2022-11-28T02:59:49.561Z,28.10
2022-11-28T03:02:24.685Z,25.50
2022-11-28T03:05:15.518Z,24.63
2022-11-28T03:07:50.325Z,24.00
2022-11-28T03:10:32.605Z,21.15
2022-11-28T03:13:19.390Z,24.10
2022-11-28T03:16:28.796Z,24.83
2022-11-28T03:19:22.708Z,23.77
2022-11-28T03:21:57.226Z,29.00
2022-11-28T03:24:43.564Z,24.63
2022-11-28T03:27:10.364Z,27.48
2022-11-28T03:29:46.605Z,28.42
2022-11-28T03:32:24.597Z,27.33
2022-11-28T03:34:54.413Z,28.73
2022-11-28T03:39:51.585Z,31.17
2022-11-28T03:42:24.122Z,28.38
2022-11-28T03:45:07.709Z,35.03
2022-11-28T03:47:36.949Z,30.17
2022-11-28T03:50:06.553Z,31.23
2022-11-28T03:52:37.291Z,33.83
2022-11-28T03:55:06.048Z,31.98
2022-11-28T03:58:06.865Z,30.52
2022-11-28T04:03:22.174Z,30.92
2022-11-28T04:05:53.866Z,31.48
2022-11-28T04:08:38.769Z,37.38
2022-11-28T04:11:19.115Z,36.80
2022-11-28T04:14:04.488Z,35.42
2022-11-28T04:16:54.547Z,34.28
2022-11-28T04:20:00.298Z,35.83
2022-11-28T04:22:38.979Z,37.55
2022-11-28T04:25:10.095Z,42.88
2022-11-28T04:27:47.509Z,38.70
2022-11-28T04:30:14.302Z,40.85
2022-11-28T04:32:45.078Z,43.10
2022-11-28T04:35:16.561Z,41.90
2022-11-28T04:37:43.816Z,45.45
2022-11-28T04:40:10.914Z,42.70
2022-11-28T04:42:43.970Z,52.03
2022-11-28T04:45:22.149Z,52.65
2022-11-28T04:47:48.752Z,47.42
2022-11-28T04:50:15.535Z,58.47
2022-11-28T04:52:46.802Z,57.72
2022-11-28T04:55:17.872Z,54.30
2022-11-28T04:57:46.417Z,61.88
2022-11-28T05:00:14.712Z,70.72
2022-11-28T05:02:41.864Z,66.13
2022-11-28T05:05:16.678Z,66.57
2022-11-28T05:07:43.446Z,68.95
2022-11-28T05:10:11.090Z,74.32
2022-11-28T05:12:37.766Z,73.57
2022-11-28T05:15:04.890Z,67.97
2022-11-28T05:17:31.476Z,72.07
2022-11-28T05:19:58.150Z,75.47
2022-11-28T05:22:24.815Z,78.32
2022-11-28T05:24:51.700Z,87.80
2022-11-28T05:27:18.414Z,79.05
2022-11-28T05:29:51.753Z,86.97
2022-11-28T05:32:18.788Z,88.97
2022-11-28T05:34:45.553Z,93.50
2022-11-28T05:37:12.251Z,92.00
2022-11-28T05:39:39.057Z,85.45
2022-11-28T05:42:05.895Z,104.53
2022-11-28T05:44:32.507Z,103.90
2022-11-28T05:46:59.173Z,119.47
2022-11-28T05:49:25.914Z,106.55
2022-11-28T05:51:52.506Z,119.07
2022-11-28T05:54:19.093Z,132.23
2022-11-28T05:56:48.973Z,121.22
2022-11-28T05:59:15.798Z,125.15
2022-11-28T06:01:42.547Z,132.35
2022-11-28T06:04:09.382Z,124.00
2022-11-28T06:06:36.196Z,119.72
2022-11-28T06:09:03.350Z,148.57
2022-11-28T06:11:31.226Z,117.97
2022-11-28T06:13:58.068Z,130.25
2022-11-28T06:16:26.582Z,129.38
2022-11-28T06:18:58.209Z,150.27
2022-11-28T06:21:25.124Z,157.43
2022-11-28T06:23:51.823Z,143.73
2022-11-28T06:26:20.250Z,150.32
2022-11-28T06:28:46.970Z,154.27
2022-11-28T06:31:20.276Z,162.68
2022-11-28T06:33:48.151Z,149.27
2022-11-28T06:36:15.751Z,155.75
2022-11-28T06:38:42.456Z,142.07
2022-11-28T06:41:11.586Z,128.10
2022-11-28T06:43:38.844Z,150.93
2022-11-28T06:46:05.816Z,171.23
2022-11-28T06:48:35.502Z,184.60
2022-11-28T06:51:03.490Z,182.73
2022-11-28T06:53:31.585Z,170.15
2022-11-28T06:55:58.882Z,176.23
2022-11-28T06:58:25.976Z,165.07
2022-11-28T07:00:52.624Z,151.90
2022-11-28T07:03:19.276Z,149.20
2022-11-28T07:05:45.930Z,156.02
2022-11-28T07:08:12.619Z,152.85
2022-11-28T07:10:39.349Z,160.02
2022-11-28T07:13:05.964Z,145.57
2022-11-28T07:15:32.548Z,144.77
2022-11-28T07:17:59.214Z,135.88
2022-11-28T07:20:25.842Z,154.07
2022-11-28T07:22:52.529Z,161.93
2022-11-28T07:25:19.173Z,133.48
2022-11-28T07:27:45.771Z,174.00
2022-11-28T07:30:12.627Z,152.68
2022-11-28T07:32:39.911Z,163.30
2022-11-28T07:35:07.127Z,148.25
2022-11-28T07:37:33.705Z,157.80
2022-11-28T07:40:00.602Z,145.32
2022-11-28T07:42:27.680Z,155.75
2022-11-28T07:44:54.326Z,168.18
2022-11-28T07:47:21.066Z,144.65
2022-11-28T07:49:47.689Z,130.80
2022-11-28T07:52:14.421Z,134.60
2022-11-28T07:54:41.111Z,147.60
2022-11-28T07:57:12.536Z,152.40
2022-11-28T07:59:40.030Z,125.55
2022-11-28T08:02:07.151Z,165.85
2022-11-28T08:04:33.971Z,142.98
2022-11-28T08:07:00.674Z,152.82
2022-11-28T08:09:27.467Z,136.65
2022-11-28T08:11:54.376Z,161.10
2022-11-28T08:14:21.054Z,140.82
2022-11-28T08:16:47.772Z,146.32
2022-11-28T08:19:14.538Z,140.90
2022-11-28T08:21:42.096Z,157.63
2022-11-28T08:24:08.873Z,140.50
2022-11-28T08:26:35.596Z,129.95
2022-11-28T08:29:02.523Z,142.43
2022-11-28T08:31:36.535Z,141.68
2022-11-28T08:34:05.261Z,142.38
2022-11-28T08:36:32.073Z,137.55
2022-11-28T08:39:17.133Z,130.45
2022-11-28T08:41:48.814Z,128.52
2022-11-28T08:44:15.495Z,136.15
2022-11-28T08:46:42.103Z,127.47
2022-11-28T08:49:08.730Z,143.13
2022-11-28T08:51:35.545Z,135.25
2022-11-28T08:54:02.189Z,127.28
2022-11-28T08:56:28.787Z,132.63
2022-11-28T08:58:55.622Z,127.18
2022-11-28T09:01:24.121Z,111.97
2022-11-28T09:03:51.060Z,135.95
2022-11-28T09:06:17.861Z,144.68
2022-11-28T09:08:44.751Z,129.30
2022-11-28T09:11:12.695Z,139.15
2022-11-28T09:13:39.309Z,132.98
2022-11-28T09:16:06.146Z,121.93
2022-11-28T09:18:32.806Z,123.63
2022-11-28T09:21:04.534Z,125.35
2022-11-28T09:23:31.146Z,150.23
2022-11-28T09:25:57.864Z,100.18
2022-11-28T09:28:24.764Z,97.05
2022-11-28T09:30:59.250Z,90.35
2022-11-28T09:33:26.149Z,96.07
2022-11-28T09:36:03.916Z,88.40
2022-11-28T09:38:30.533Z,79.15
2022-11-28T09:40:57.113Z,84.07
2022-11-28T09:43:38.171Z,82.55
2022-11-28T09:46:06.082Z,78.45
2022-11-28T09:48:38.179Z,77.40
2022-11-28T09:51:17.388Z,83.78
2022-11-28T09:53:55.890Z,79.90
2022-11-28T09:56:22.598Z,87.00
2022-11-28T09:58:55.185Z,71.32
2022-11-28T10:01:39.743Z,82.75
2022-11-28T10:04:29.812Z,75.45
2022-11-28T10:07:06.346Z,93.10
2022-11-28T10:09:45.471Z,79.00
2022-11-28T10:12:24.198Z,77.28
2022-11-28T10:15:19.751Z,81.07
2022-11-28T10:17:52.100Z,69.72
2022-11-28T10:20:25.923Z,64.28
2022-11-28T10:23:22.976Z,53.15
2022-11-28T10:25:51.305Z,60.08
2022-11-28T10:28:23.476Z,60.45
2022-11-28T10:31:28.387Z,64.20
2022-11-28T10:34:02.344Z,71.85
2022-11-28T10:36:31.792Z,60.50
2022-11-28T10:39:00.617Z,66.15
2022-11-28T10:41:32.098Z,56.05
2022-11-28T10:44:02.800Z,52.50
2022-11-28T10:46:56.941Z,58.42
2022-11-28T10:49:50.274Z,53.30
2022-11-28T10:52:31.287Z,58.88
2022-11-28T10:55:07.655Z,52.28
2022-11-28T10:57:43.195Z,54.95
2022-11-28T11:00:14.234Z,39.75
2022-11-28T11:02:54.606Z,51.15
2022-11-28T11:05:24.605Z,55.08
2022-11-28T11:07:59.561Z,44.45
2022-11-28T11:10:30.457Z,46.53
2022-11-28T11:12:57.244Z,42.40
2022-11-28T11:15:43.245Z,46.83
2022-11-28T11:18:24.645Z,41.47
2022-11-28T11:20:51.552Z,36.33
2022-11-28T11:23:19.981Z,34.80
2022-11-28T11:26:03.057Z,38.35
2022-11-28T11:28:34.391Z,41.65
2022-11-28T11:31:05.847Z,40.53
2022-11-28T11:33:36.801Z,40.72
2022-11-28T11:36:04.791Z,35.90
2022-11-28T11:38:37.707Z,35.08
2022-11-28T11:41:29.150Z,35.45
2022-11-28T11:43:56.751Z,38.63
2022-11-28T11:46:23.411Z,36.13
2022-11-28T11:48:52.409Z,34.10
2022-11-28T11:51:28.765Z,31.83
2022-11-28T11:54:13.668Z,39.30
2022-11-28T11:56:42.175Z,35.00
2022-11-28T11:59:34.006Z,31.15
2022-11-28T12:02:03.099Z,31.73
2022-11-28T12:04:55.207Z,22.83
2022-11-28T12:07:25.348Z,22.48
2022-11-28T12:09:54.463Z,23.10
2022-11-28T12:12:25.136Z,24.60
2022-11-28T12:14:51.790Z,24.92
2022-11-28T12:17:53.414Z,24.73
2022-11-28T12:20:30.182Z,23.45
2022-11-28T12:23:25.978Z,22.63
2022-11-28T12:26:17.651Z,24.25
2022-11-28T12:28:53.459Z,27.00
2022-11-28T12:34:04.253Z,24.80
2022-11-28T12:36:39.627Z,35.08
2022-11-28T12:39:12.589Z,33.65
2022-11-28T12:42:03.592Z,26.55
2022-11-28T12:44:48.490Z,27.70
2022-11-28T12:47:34.110Z,30.02
2022-11-28T12:50:16.783Z,26.65
2022-11-28T12:53:03.252Z,33.13
2022-11-28T12:55:51.638Z,26.05
2022-11-28T13:01:14.496Z,32.53
2022-11-28T13:04:10.382Z,33.75
2022-11-28T13:06:40.677Z,30.60
2022-11-28T13:09:45.941Z,33.25
2022-11-28T13:12:40.418Z,42.55
2022-11-28T13:15:38.251Z,31.65
2022-11-28T13:18:41.992Z,34.85
2022-11-28T13:21:11.081Z,37.60
2022-11-28T13:23:44.005Z,31.23
2022-11-28T13:26:47.971Z,35.72
2022-11-28T13:29:46.681Z,37.60
2022-11-28T13:32:19.605Z,37.88
2022-11-28T13:34:46.680Z,33.83
2022-11-28T13:40:21.268Z,37.13
2022-11-28T13:43:04.401Z,35.35
2022-11-28T13:45:39.350Z,35.53
2022-11-28T13:48:57.299Z,39.00
2022-11-28T13:51:30.578Z,33.42
2022-11-28T13:54:17.359Z,37.67
2022-11-28T13:57:10.793Z,39.58
2022-11-28T13:59:37.455Z,40.63
2022-11-28T14:02:05.587Z,43.88
2022-11-28T14:04:32.308Z,44.17
2022-11-28T14:07:03.666Z,43.40
2022-11-28T14:09:55.250Z,41.88
2022-11-28T14:12:41.104Z,45.30
2022-11-28T14:15:10.052Z,47.10
2022-11-28T14:18:01.696Z,48.40
2022-11-28T14:20:48.615Z,46.22
2022-11-28T14:23:43.180Z,50.47
2022-11-28T14:26:38.576Z,48.70
2022-11-28T14:29:07.525Z,55.85
2022-11-28T14:31:37.838Z,58.40
2022-11-28T14:34:25.605Z,53.25
2022-11-28T14:37:13.413Z,47.03
2022-11-28T14:39:40.078Z,53.10
2022-11-28T14:42:06.725Z,47.67
2022-11-28T14:44:46.349Z,46.05
2022-11-28T14:47:24.756Z,50.22
2022-11-28T14:50:09.818Z,48.33
2022-11-28T14:52:39.570Z,57.47
2022-11-28T14:55:12.720Z,50.95
2022-11-28T14:57:53.059Z,51.72
2022-11-28T15:00:38.506Z,56.83
2022-11-28T15:03:21.531Z,51.20
2022-11-28T15:05:54.705Z,54.63
2022-11-28T15:08:43.062Z,53.88
2022-11-28T15:11:25.596Z,45.83
2022-11-28T15:14:16.869Z,58.05
2022-11-28T15:16:50.556Z,54.35
2022-11-28T15:19:22.313Z,55.58
2022-11-28T15:21:55.503Z,60.45
2022-11-28T15:24:32.220Z,60.28
2022-11-28T15:27:18.216Z,57.13
2022-11-28T15:29:57.529Z,64.15
2022-11-28T15:32:25.095Z,57.70
2022-11-28T15:35:10.877Z,64.40
2022-11-28T15:37:39.125Z,65.70
2022-11-28T15:40:37.169Z,56.78
2022-11-28T15:43:08.034Z,54.45
2022-11-28T15:45:39.296Z,56.28
2022-11-28T15:48:06.207Z,55.47
2022-11-28T15:50:33.200Z,64.78
2022-11-28T15:53:00.716Z,66.57
2022-11-28T15:55:32.111Z,94.85
2022-11-28T15:58:21.883Z,62.53
2022-11-28T16:00:54.225Z,57.28
2022-11-28T16:03:25.145Z,57.10
2022-11-28T16:05:52.661Z,54.38
2022-11-28T16:08:32.042Z,62.58
2022-11-28T16:10:59.677Z,57.28
2022-11-28T16:13:26.541Z,50.72
2022-11-28T16:15:53.655Z,62.63
2022-11-28T16:18:20.456Z,52.55
2022-11-28T16:20:47.258Z,48.85
2022-11-28T16:23:34.751Z,59.13
2022-11-28T16:26:19.499Z,55.53
2022-11-28T16:29:14.446Z,57.90
2022-11-28T16:31:42.525Z,47.58
2022-11-28T16:34:12.641Z,62.72
2022-11-28T16:36:39.513Z,79.18
2022-11-28T16:39:09.121Z,71.20
2022-11-28T16:41:36.027Z,80.60
2022-11-28T16:44:04.673Z,62.28
2022-11-28T16:46:34.684Z,66.38
2022-11-28T16:49:02.461Z,56.38
2022-11-28T16:51:33.802Z,60.60
2022-11-28T16:54:21.513Z,58.20
2022-11-28T16:56:48.244Z,45.38
2022-11-28T16:59:19.342Z,56.90
2022-11-28T17:01:47.213Z,58.03
2022-11-28T17:04:20.524Z,59.38
2022-11-28T17:06:47.217Z,48.15
2022-11-28T17:09:27.146Z,52.38
2022-11-28T17:11:59.347Z,60.63
2022-11-28T17:14:25.978Z,52.05
2022-11-28T17:16:52.659Z,59.92
2022-11-28T17:19:19.486Z,59.67
2022-11-28T17:21:48.864Z,61.42
2022-11-28T17:24:24.020Z,58.17
2022-11-28T17:26:51.512Z,70.72
2022-11-28T17:29:18.413Z,76.63
2022-11-28T17:31:45.451Z,72.85
2022-11-28T17:34:21.702Z,80.97
2022-11-28T17:36:48.555Z,72.50
2022-11-28T17:39:15.575Z,67.72
2022-11-28T17:41:42.467Z,58.92
2022-11-28T17:44:26.189Z,70.38
2022-11-28T17:46:53.793Z,71.60
2022-11-28T17:49:20.595Z,71.88
2022-11-28T17:51:47.472Z,67.15
2022-11-28T17:54:15.345Z,68.95
2022-11-28T17:56:42.852Z,69.35
2022-11-28T17:59:13.361Z,69.68
2022-11-28T18:01:40.432Z,71.90
2022-11-28T18:04:07.219Z,66.88
2022-11-28T18:06:33.896Z,75.75
2022-11-28T18:09:01.114Z,75.80
2022-11-28T18:11:28.110Z,85.20
2022-11-28T18:13:55.709Z,70.03
2022-11-28T18:16:23.395Z,70.68
2022-11-28T18:18:50.284Z,73.60
2022-11-28T18:21:18.907Z,66.70
2022-11-28T18:23:49.690Z,78.53
2022-11-28T18:26:18.513Z,73.35
2022-11-28T18:28:45.312Z,72.78
2022-11-28T18:31:22.252Z,84.70
2022-11-28T18:33:49.290Z,84.07
2022-11-28T18:36:23.954Z,88.35
2022-11-28T18:38:57.295Z,70.53
2022-11-28T18:41:25.258Z,85.28
2022-11-28T18:43:57.929Z,89.30
2022-11-28T18:46:25.176Z,91.53
2022-11-28T18:48:51.981Z,70.20
2022-11-28T18:51:20.432Z,90.15
2022-11-28T18:53:47.855Z,81.38
2022-11-28T18:56:21.244Z,89.35
2022-11-28T18:58:49.187Z,100.35
2022-11-28T19:01:17.889Z,102.57
2022-11-28T19:03:48.578Z,100.22
2022-11-28T19:06:15.724Z,96.57
2022-11-28T19:08:42.446Z,98.13
2022-11-28T19:11:10.966Z,88.85
2022-11-28T19:13:48.199Z,108.03
2022-11-28T19:18:58.043Z,89.75
2022-11-28T19:21:26.700Z,96.03
2022-11-28T19:23:55.446Z,102.05
2022-11-28T19:26:22.906Z,100.93
2022-11-28T19:28:49.775Z,94.25
2022-11-28T19:31:20.529Z,100.57
2022-11-28T19:34:13.794Z,106.50
2022-11-28T19:36:47.890Z,84.35
2022-11-28T19:39:24.473Z,90.07
2022-11-28T19:42:01.955Z,91.47
2022-11-28T19:44:29.118Z,101.10
2022-11-28T19:46:57.800Z,93.88
2022-11-28T19:49:24.880Z,100.90
2022-11-28T19:51:53.059Z,111.28
2022-11-28T19:54:19.989Z,92.32
2022-11-28T19:56:47.319Z,88.53
2022-11-28T19:59:15.373Z,86.65
2022-11-28T20:01:43.762Z,89.80
2022-11-28T20:04:10.837Z,104.22
2022-11-28T20:06:37.619Z,90.20
2022-11-28T20:09:08.347Z,93.05
2022-11-28T20:11:35.272Z,97.60
2022-11-28T20:14:16.106Z,98.43
2022-11-28T20:16:43.020Z,86.75
2022-11-28T20:19:09.912Z,108.88
2022-11-28T20:21:36.652Z,97.32
2022-11-28T20:24:04.428Z,97.63
2022-11-28T20:26:33.690Z,89.45
2022-11-28T20:29:00.398Z,89.05
2022-11-28T20:31:33.645Z,84.72
2022-11-28T20:34:00.752Z,89.93
2022-11-28T20:36:28.325Z,84.72
2022-11-28T20:38:55.879Z,93.28
2022-11-28T20:41:23.555Z,97.38
2022-11-28T20:43:50.369Z,100.38
2022-11-28T20:46:25.152Z,80.93
2022-11-28T20:48:51.997Z,84.97
2022-11-28T20:51:23.044Z,83.45
2022-11-28T20:53:49.709Z,91.63
2022-11-28T20:56:27.235Z,79.47
2022-11-28T20:58:53.902Z,82.30
2022-11-28T21:01:22.639Z,93.25
2022-11-28T21:03:50.993Z,89.05
2022-11-28T21:06:18.196Z,82.70
2022-11-28T21:08:44.919Z,81.13
2022-11-28T21:11:30.909Z,106.45
2022-11-28T21:14:03.303Z,81.75
2022-11-28T21:16:30.628Z,103.32
2022-11-28T21:19:05.435Z,98.95
2022-11-28T21:21:33.329Z,97.80
2022-11-28T21:24:01.663Z,80.78
2022-11-28T21:26:30.490Z,96.63
2022-11-28T21:28:59.885Z,89.40
2022-11-28T21:31:28.265Z,107.38
2022-11-28T21:33:58.604Z,94.30
2022-11-28T21:36:26.017Z,98.85
2022-11-28T21:38:57.019Z,100.75
2022-11-28T21:41:26.676Z,93.35
2022-11-28T21:43:53.951Z,96.65
2022-11-28T21:46:20.805Z,93.10
2022-11-28T21:48:47.461Z,97.65
2022-11-28T21:51:18.623Z,109.47
2022-11-28T21:53:46.027Z,93.40
2022-11-28T21:56:12.963Z,103.20
2022-11-28T21:58:39.877Z,93.63
2022-11-28T22:01:08.392Z,89.00
2022-11-28T22:03:35.441Z,84.85
2022-11-28T22:06:02.734Z,90.22
2022-11-28T22:08:29.687Z,87.97
2022-11-28T22:10:56.537Z,87.85
2022-11-28T22:13:23.179Z,99.07
2022-11-28T22:15:49.918Z,86.55
2022-11-28T22:18:16.545Z,89.28
2022-11-28T22:20:45.726Z,88.72
2022-11-28T22:23:14.462Z,77.15
2022-11-28T22:25:49.409Z,78.63
2022-11-28T22:28:16.124Z,89.55
2022-11-28T22:30:42.719Z,89.38
2022-11-28T22:33:09.361Z,91.43
2022-11-28T22:35:35.950Z,92.65
2022-11-28T22:38:02.651Z,78.70
2022-11-28T22:40:29.338Z,79.57
2022-11-28T22:42:56.161Z,87.88
2022-11-28T22:45:22.874Z,71.13
2022-11-28T22:47:49.503Z,78.60
2022-11-28T22:50:16.247Z,78.65
2022-11-28T22:52:42.863Z,89.57
2022-11-28T22:55:09.639Z,74.05
2022-11-28T22:57:36.323Z,78.57
2022-11-28T23:00:04.281Z,77.60
2022-11-28T23:02:30.919Z,76.68
2022-11-28T23:04:57.557Z,92.82
2022-11-28T23:07:24.244Z,72.88
2022-11-28T23:09:50.881Z,81.20
2022-11-28T23:12:17.523Z,86.50
2022-11-28T23:14:44.360Z,83.55
2022-11-28T23:17:11.059Z,71.93
2022-11-28T23:19:37.800Z,81.55
2022-11-28T23:22:04.403Z,74.28
2022-11-28T23:24:31.037Z,69.55
2022-11-28T23:26:57.683Z,80.05
2022-11-28T23:29:24.269Z,72.00
2022-11-28T23:31:51.012Z,82.47
2022-11-28T23:34:17.822Z,77.47
2022-11-28T23:36:45.926Z,88.03
2022-11-28T23:39:20.221Z,71.85
2022-11-28T23:41:46.924Z,79.93
2022-11-28T23:44:14.134Z,78.95
2022-11-28T23:46:41.007Z,71.28
2022-11-28T23:49:07.784Z,67.90
2022-11-28T23:51:34.430Z,84.13
2022-11-28T23:54:01.051Z,64.53
2022-11-28T23:56:30.531Z,76.43
2022-11-28T23:58:57.251Z,80.72
